Bourbonnais, IL (60914)

6:10 AM CST on February 21, 2017 (GMT -0600)
Dennison Drive | | Change Station

Elev 728 ft 41.17 °N, 87.88 °W | Updated 2 minutes ago

Rain
Rain
53.6 °F
Feels Like 53.6 °F
N
3.1
Wind Variable Wind from SE
Gusts 8.7 mph

Today
High -- | Low -- °F
--% Chance of Precip.
Yesterday
High -- | Low -- °F
Precip. -- in
Pressure 29.95 in
Visibility 7.0 miles
Clouds Mostly Cloudy 6000 ft
Overcast 7000 ft
Dew Point 50 °F
Humidity 89%
Rainfall 0.00 in
Snow Depth Not available.
6:37 AM 5:33 PM
Waning Crescent, 26% visible
METAR KIKK 211155Z AUTO 00000KT 7SM RA BKN060 OVC070 12/10 A2995 RMK AO2 P0002 60002 70002 T01150101 10134 20108
Pressure 29.95 in
Visibility 7.0 miles
Clouds Mostly Cloudy 6000 ft
Overcast 7000 ft
Dew Point 50 °F
Humidity 89%
Rainfall 0.00 in
Snow Depth Not available.
6:37 AM 5:33 PM
Waning Crescent, 26% visible
METAR KIKK 211155Z AUTO 00000KT 7SM RA BKN060 OVC070 12/10 A2995 RMK AO2 P0002 60002 70002 T01150101 10134 20108

Get Your Daily Forecast Email!

Thanks for signing up!

Be on the lookout for a verification email in your inbox.

You'll start receiving the daily forecast at 8 AM.

×

10-Day Weather Forecast

Almanac

Astronomy

Feb. 21, 2017 Rise Set
Actual Time
Civil Twilight
Nautical Twilight
Astronomical Twilight
Moon
Length of Visible Light
Length of Day
Tomorrow will be .
, % of the Moon is Illuminated

Today's Extremes

State Highs State Lows

Community

WunderPhotos

Upload Photos

1,962,540 photos uploaded!

WunderBlog® & News

Nearby

Air Quality

  Air Quality AQ Index Pollutant
Not available.

Snow Depth

Station Depth Elevation

Earthquake Activity

City Distance Mag. Time & Date
Minimum magnitude displayed is 2.5.

Coastal Water Temperatures

Place Temperature

Stations

Nearby Weather Stations

Station Location Temp. Windchill Dew Point Humidity Wind Precip. Elev Updated Type
                   

Watches & Warnings

There are currently no watches in effect.